sensor_id;sensor_type;location;lat;lon;timestamp;temperature;humidity
56727;DHT22;42609;52.700;6.236;2022-08-18T00:00:08;19.30;99.90
56727;DHT22;42609;52.700;6.236;2022-08-18T00:02:40;19.30;99.90
56727;DHT22;42609;52.700;6.236;2022-08-18T00:05:08;19.20;99.90
56727;DHT22;42609;52.700;6.236;2022-08-18T00:07:34;19.20;99.90
56727;DHT22;42609;52.700;6.236;2022-08-18T00:10:00;19.20;99.90
56727;DHT22;42609;52.700;6.236;2022-08-18T00:12:30;19.20;99.90
56727;DHT22;42609;52.700;6.236;2022-08-18T00:14:57;19.20;99.90
56727;DHT22;42609;52.700;6.236;2022-08-18T00:17:28;19.20;99.90
56727;DHT22;42609;52.700;6.236;2022-08-18T00:19:54;19.20;99.90
56727;DHT22;42609;52.700;6.236;2022-08-18T00:22:20;19.30;99.90
56727;DHT22;42609;52.700;6.236;2022-08-18T00:24:49;19.30;99.90
56727;DHT22;42609;52.700;6.236;2022-08-18T00:27:20;19.30;99.90
56727;DHT22;42609;52.700;6.236;2022-08-18T00:29:46;19.30;99.90
56727;DHT22;42609;52.700;6.236;2022-08-18T00:32:19;19.20;99.90
56727;DHT22;42609;52.700;6.236;2022-08-18T00:34:45;19.30;99.90
56727;DHT22;42609;52.700;6.236;2022-08-18T00:37:11;19.30;99.90
56727;DHT22;42609;52.700;6.236;2022-08-18T00:39:37;19.30;99.90
56727;DHT22;42609;52.700;6.236;2022-08-18T00:42:17;19.30;99.90
56727;DHT22;42609;52.700;6.236;2022-08-18T00:44:43;19.30;99.90
56727;DHT22;42609;52.700;6.236;2022-08-18T00:47:09;19.30;99.90
56727;DHT22;42609;52.700;6.236;2022-08-18T00:49:36;19.40;99.90
56727;DHT22;42609;52.700;6.236;2022-08-18T00:52:02;19.40;99.90
56727;DHT22;42609;52.700;6.236;2022-08-18T00:54:30;19.40;99.90
56727;DHT22;42609;52.700;6.236;2022-08-18T00:57:02;19.40;99.90
56727;DHT22;42609;52.700;6.236;2022-08-18T01:02:10;19.40;99.90
56727;DHT22;42609;52.700;6.236;2022-08-18T01:04:42;19.40;99.90
56727;DHT22;42609;52.700;6.236;2022-08-18T01:07:13;19.30;99.90
56727;DHT22;42609;52.700;6.236;2022-08-18T01:09:40;19.30;99.90
56727;DHT22;42609;52.700;6.236;2022-08-18T01:12:06;19.30;99.90
56727;DHT22;42609;52.700;6.236;2022-08-18T01:14:32;19.30;99.90
56727;DHT22;42609;52.700;6.236;2022-08-18T01:16:58;19.30;99.90
56727;DHT22;42609;52.700;6.236;2022-08-18T01:19:43;19.30;99.90
56727;DHT22;42609;52.700;6.236;2022-08-18T01:25:15;19.40;99.90
56727;DHT22;42609;52.700;6.236;2022-08-18T01:28:00;19.30;99.90
56727;DHT22;42609;52.700;6.236;2022-08-18T01:30:28;19.30;99.90
56727;DHT22;42609;52.700;6.236;2022-08-18T01:32:54;19.40;99.90
56727;DHT22;42609;52.700;6.236;2022-08-18T01:35:21;19.30;99.90
56727;DHT22;42609;52.700;6.236;2022-08-18T01:37:47;19.40;99.90
56727;DHT22;42609;52.700;6.236;2022-08-18T01:40:15;19.40;99.90
56727;DHT22;42609;52.700;6.236;2022-08-18T01:42:41;19.40;99.90
56727;DHT22;42609;52.700;6.236;2022-08-18T01:45:11;19.40;99.90
56727;DHT22;42609;52.700;6.236;2022-08-18T01:47:38;19.40;99.90
56727;DHT22;42609;52.700;6.236;2022-08-18T01:50:05;19.30;99.90
56727;DHT22;42609;52.700;6.236;2022-08-18T01:52:32;19.30;99.90
56727;DHT22;42609;52.700;6.236;2022-08-18T01:55:00;19.40;99.90
56727;DHT22;42609;52.700;6.236;2022-08-18T01:57:26;19.40;99.90
56727;DHT22;42609;52.700;6.236;2022-08-18T01:59:51;19.40;99.90
56727;DHT22;42609;52.700;6.236;2022-08-18T02:02:22;19.40;99.90
56727;DHT22;42609;52.700;6.236;2022-08-18T02:04:51;19.40;99.90
56727;DHT22;42609;52.700;6.236;2022-08-18T02:07:19;19.40;99.90
56727;DHT22;42609;52.700;6.236;2022-08-18T02:09:45;19.40;99.90
56727;DHT22;42609;52.700;6.236;2022-08-18T02:12:11;19.40;99.90
56727;DHT22;42609;52.700;6.236;2022-08-18T02:14:37;19.40;99.90
56727;DHT22;42609;52.700;6.236;2022-08-18T02:17:04;19.40;99.90
56727;DHT22;42609;52.700;6.236;2022-08-18T02:19:34;19.40;99.90
56727;DHT22;42609;52.700;6.236;2022-08-18T02:22:01;19.40;99.90
56727;DHT22;42609;52.700;6.236;2022-08-18T02:24:26;19.40;99.90
56727;DHT22;42609;52.700;6.236;2022-08-18T02:26:52;19.40;99.90
56727;DHT22;42609;52.700;6.236;2022-08-18T02:29:18;19.40;99.90
56727;DHT22;42609;52.700;6.236;2022-08-18T02:31:44;19.40;99.90
56727;DHT22;42609;52.700;6.236;2022-08-18T02:34:09;19.40;99.90
56727;DHT22;42609;52.700;6.236;2022-08-18T02:36:35;19.40;99.90
56727;DHT22;42609;52.700;6.236;2022-08-18T02:39:00;19.40;99.90
56727;DHT22;42609;52.700;6.236;2022-08-18T02:41:26;19.40;99.90
56727;DHT22;42609;52.700;6.236;2022-08-18T02:43:52;19.40;99.90
56727;DHT22;42609;52.700;6.236;2022-08-18T02:46:18;19.30;99.90
56727;DHT22;42609;52.700;6.236;2022-08-18T02:48:43;19.30;99.90
56727;DHT22;42609;52.700;6.236;2022-08-18T02:51:14;19.30;99.90
56727;DHT22;42609;52.700;6.236;2022-08-18T02:53:42;19.30;99.90
56727;DHT22;42609;52.700;6.236;2022-08-18T02:56:15;19.30;99.90
56727;DHT22;42609;52.700;6.236;2022-08-18T02:58:58;19.30;99.90
56727;DHT22;42609;52.700;6.236;2022-08-18T03:01:36;19.30;99.90
56727;DHT22;42609;52.700;6.236;2022-08-18T03:04:04;19.30;99.90
56727;DHT22;42609;52.700;6.236;2022-08-18T03:06:31;19.30;99.90
56727;DHT22;42609;52.700;6.236;2022-08-18T03:08:57;19.20;99.90
56727;DHT22;42609;52.700;6.236;2022-08-18T03:11:26;19.20;99.90
56727;DHT22;42609;52.700;6.236;2022-08-18T03:13:52;19.20;99.90
56727;DHT22;42609;52.700;6.236;2022-08-18T03:16:19;19.20;99.90
56727;DHT22;42609;52.700;6.236;2022-08-18T03:18:46;19.20;99.90
56727;DHT22;42609;52.700;6.236;2022-08-18T03:21:18;19.20;99.90
56727;DHT22;42609;52.700;6.236;2022-08-18T03:23:46;19.20;99.90
56727;DHT22;42609;52.700;6.236;2022-08-18T03:26:14;19.20;99.90
56727;DHT22;42609;52.700;6.236;2022-08-18T03:28:43;19.20;99.90
56727;DHT22;42609;52.700;6.236;2022-08-18T03:31:10;19.20;99.90
56727;DHT22;42609;52.700;6.236;2022-08-18T03:33:37;19.20;99.90
56727;DHT22;42609;52.700;6.236;2022-08-18T03:36:07;19.20;99.90
56727;DHT22;42609;52.700;6.236;2022-08-18T03:38:34;19.20;99.90
56727;DHT22;42609;52.700;6.236;2022-08-18T03:41:00;19.20;99.90
56727;DHT22;42609;52.700;6.236;2022-08-18T03:43:25;19.20;99.90
56727;DHT22;42609;52.700;6.236;2022-08-18T03:45:52;19.20;99.90
56727;DHT22;42609;52.700;6.236;2022-08-18T03:48:21;19.20;99.90
56727;DHT22;42609;52.700;6.236;2022-08-18T03:50:47;19.30;99.90
56727;DHT22;42609;52.700;6.236;2022-08-18T03:53:13;19.30;99.90
56727;DHT22;42609;52.700;6.236;2022-08-18T03:55:42;19.30;99.90
56727;DHT22;42609;52.700;6.236;2022-08-18T03:58:08;19.30;99.90
56727;DHT22;42609;52.700;6.236;2022-08-18T04:00:38;19.30;99.90
56727;DHT22;42609;52.700;6.236;2022-08-18T04:03:05;19.20;99.90
56727;DHT22;42609;52.700;6.236;2022-08-18T04:05:31;19.20;99.90
56727;DHT22;42609;52.700;6.236;2022-08-18T04:07:59;19.30;99.90
56727;DHT22;42609;52.700;6.236;2022-08-18T04:10:27;19.20;99.90
56727;DHT22;42609;52.700;6.236;2022-08-18T04:12:52;19.20;99.90
56727;DHT22;42609;52.700;6.236;2022-08-18T04:15:18;19.20;99.90
56727;DHT22;42609;52.700;6.236;2022-08-18T04:17:43;19.20;99.90
56727;DHT22;42609;52.700;6.236;2022-08-18T04:20:11;19.20;99.90
56727;DHT22;42609;52.700;6.236;2022-08-18T04:22:38;19.20;99.90
56727;DHT22;42609;52.700;6.236;2022-08-18T04:25:05;19.20;99.90
56727;DHT22;42609;52.700;6.236;2022-08-18T04:27:34;19.20;99.90
56727;DHT22;42609;52.700;6.236;2022-08-18T04:29:59;19.20;99.90
56727;DHT22;42609;52.700;6.236;2022-08-18T04:32:25;19.20;99.90
56727;DHT22;42609;52.700;6.236;2022-08-18T04:34:51;19.10;99.90
56727;DHT22;42609;52.700;6.236;2022-08-18T04:37:17;19.10;99.90
56727;DHT22;42609;52.700;6.236;2022-08-18T04:39:43;19.10;99.90
56727;DHT22;42609;52.700;6.236;2022-08-18T04:42:09;19.10;99.90
56727;DHT22;42609;52.700;6.236;2022-08-18T04:44:35;19.10;99.90
56727;DHT22;42609;52.700;6.236;2022-08-18T04:47:03;19.20;99.90
56727;DHT22;42609;52.700;6.236;2022-08-18T04:49:29;19.20;99.90
56727;DHT22;42609;52.700;6.236;2022-08-18T04:51:56;19.20;99.90
56727;DHT22;42609;52.700;6.236;2022-08-18T04:54:41;19.10;99.90
56727;DHT22;42609;52.700;6.236;2022-08-18T04:57:08;19.20;99.90
56727;DHT22;42609;52.700;6.236;2022-08-18T04:59:34;19.20;99.90
56727;DHT22;42609;52.700;6.236;2022-08-18T05:02:01;19.10;99.90
56727;DHT22;42609;52.700;6.236;2022-08-18T05:04:30;19.10;99.90
56727;DHT22;42609;52.700;6.236;2022-08-18T05:06:56;19.10;99.90
56727;DHT22;42609;52.700;6.236;2022-08-18T05:09:22;19.10;99.90
56727;DHT22;42609;52.700;6.236;2022-08-18T05:11:48;19.10;99.90
56727;DHT22;42609;52.700;6.236;2022-08-18T05:14:14;19.10;99.90
56727;DHT22;42609;52.700;6.236;2022-08-18T05:16:41;19.20;99.90
56727;DHT22;42609;52.700;6.236;2022-08-18T05:19:09;19.10;99.90
56727;DHT22;42609;52.700;6.236;2022-08-18T05:21:37;19.10;99.90
56727;DHT22;42609;52.700;6.236;2022-08-18T05:24:04;19.10;99.90
56727;DHT22;42609;52.700;6.236;2022-08-18T05:26:30;19.10;99.90
56727;DHT22;42609;52.700;6.236;2022-08-18T05:28:56;19.10;99.90
56727;DHT22;42609;52.700;6.236;2022-08-18T05:31:24;19.20;99.90
56727;DHT22;42609;52.700;6.236;2022-08-18T05:33:51;19.20;99.90
56727;DHT22;42609;52.700;6.236;2022-08-18T05:44:18;19.20;99.90
56727;DHT22;42609;52.700;6.236;2022-08-18T05:46:50;19.30;99.90
56727;DHT22;42609;52.700;6.236;2022-08-18T05:49:17;19.30;99.90
56727;DHT22;42609;52.700;6.236;2022-08-18T05:51:52;19.30;99.90
56727;DHT22;42609;52.700;6.236;2022-08-18T05:54:20;19.30;99.90
56727;DHT22;42609;52.700;6.236;2022-08-18T05:57:16;19.40;99.90
56727;DHT22;42609;52.700;6.236;2022-08-18T05:59:43;19.40;99.90
56727;DHT22;42609;52.700;6.236;2022-08-18T06:02:11;19.40;99.90
56727;DHT22;42609;52.700;6.236;2022-08-18T06:04:44;19.50;99.90
56727;DHT22;42609;52.700;6.236;2022-08-18T06:07:57;19.50;99.90
56727;DHT22;42609;52.700;6.236;2022-08-18T06:10:05;19.50;99.90
56727;DHT22;42609;52.700;6.236;2022-08-18T06:12:49;19.50;99.90
56727;DHT22;42609;52.700;6.236;2022-08-18T06:18:12;19.60;99.90
56727;DHT22;42609;52.700;6.236;2022-08-18T06:29:39;19.70;99.90
56727;DHT22;42609;52.700;6.236;2022-08-18T06:40:42;20.10;99.90
56727;DHT22;42609;52.700;6.236;2022-08-18T06:43:11;20.20;99.90
56727;DHT22;42609;52.700;6.236;2022-08-18T06:45:40;20.30;99.90
56727;DHT22;42609;52.700;6.236;2022-08-18T06:48:36;20.30;99.90
56727;DHT22;42609;52.700;6.236;2022-08-18T06:51:05;20.30;99.90
56727;DHT22;42609;52.700;6.236;2022-08-18T06:53:55;20.30;99.90
56727;DHT22;42609;52.700;6.236;2022-08-18T06:58:53;20.30;99.90
56727;DHT22;42609;52.700;6.236;2022-08-18T07:01:21;20.30;99.90
56727;DHT22;42609;52.700;6.236;2022-08-18T07:03:53;20.40;99.90
56727;DHT22;42609;52.700;6.236;2022-08-18T07:09:33;20.40;99.90
56727;DHT22;42609;52.700;6.236;2022-08-18T07:11:33;20.50;99.90
56727;DHT22;42609;52.700;6.236;2022-08-18T07:16:36;20.70;99.90
56727;DHT22;42609;52.700;6.236;2022-08-18T07:19:10;20.80;99.90
56727;DHT22;42609;52.700;6.236;2022-08-18T07:21:38;20.80;99.90
56727;DHT22;42609;52.700;6.236;2022-08-18T07:24:08;21.00;99.90
56727;DHT22;42609;52.700;6.236;2022-08-18T07:29:22;21.20;99.90
56727;DHT22;42609;52.700;6.236;2022-08-18T07:31:51;21.20;99.90
56727;DHT22;42609;52.700;6.236;2022-08-18T07:34:31;21.20;99.90
56727;DHT22;42609;52.700;6.236;2022-08-18T07:37:04;21.20;99.90
56727;DHT22;42609;52.700;6.236;2022-08-18T07:39:42;21.20;99.90
56727;DHT22;42609;52.700;6.236;2022-08-18T07:42:40;21.30;99.90
56727;DHT22;42609;52.700;6.236;2022-08-18T07:45:45;21.40;99.90
56727;DHT22;42609;52.700;6.236;2022-08-18T07:48:20;21.50;99.90
56727;DHT22;42609;52.700;6.236;2022-08-18T07:56:40;22.20;99.90
56727;DHT22;42609;52.700;6.236;2022-08-18T07:59:31;22.40;99.90
56727;DHT22;42609;52.700;6.236;2022-08-18T08:07:37;22.70;99.90
56727;DHT22;42609;52.700;6.236;2022-08-18T08:10:38;22.50;99.90
56727;DHT22;42609;52.700;6.236;2022-08-18T08:15:47;22.20;99.90
56727;DHT22;42609;52.700;6.236;2022-08-18T08:20:57;22.20;99.90
56727;DHT22;42609;52.700;6.236;2022-08-18T08:29:05;22.50;99.90
56727;DHT22;42609;52.700;6.236;2022-08-18T08:31:48;22.50;99.90
56727;DHT22;42609;52.700;6.236;2022-08-18T08:34:19;22.50;99.90
56727;DHT22;42609;52.700;6.236;2022-08-18T08:36:54;22.40;99.90
56727;DHT22;42609;52.700;6.236;2022-08-18T08:40:15;22.60;99.90
56727;DHT22;42609;52.700;6.236;2022-08-18T08:42:41;22.70;99.90
56727;DHT22;42609;52.700;6.236;2022-08-18T08:45:26;22.80;99.90
56727;DHT22;42609;52.700;6.236;2022-08-18T08:47:59;23.00;99.90
56727;DHT22;42609;52.700;6.236;2022-08-18T08:50:29;23.20;99.90
56727;DHT22;42609;52.700;6.236;2022-08-18T08:53:57;23.20;99.90
56727;DHT22;42609;52.700;6.236;2022-08-18T08:56:08;23.40;99.90
56727;DHT22;42609;52.700;6.236;2022-08-18T09:07:49;23.90;99.90
56727;DHT22;42609;52.700;6.236;2022-08-18T09:21:43;23.20;99.90
56727;DHT22;42609;52.700;6.236;2022-08-18T09:24:24;23.00;99.90
56727;DHT22;42609;52.700;6.236;2022-08-18T09:37:40;23.00;99.90
56727;DHT22;42609;52.700;6.236;2022-08-18T09:40:18;23.20;99.90
56727;DHT22;42609;52.700;6.236;2022-08-18T09:43:12;23.40;99.90
56727;DHT22;42609;52.700;6.236;2022-08-18T09:45:55;23.50;99.90
56727;DHT22;42609;52.700;6.236;2022-08-18T09:48:27;23.50;99.90
56727;DHT22;42609;52.700;6.236;2022-08-18T09:51:21;23.40;99.90
56727;DHT22;42609;52.700;6.236;2022-08-18T09:54:11;23.40;99.90
56727;DHT22;42609;52.700;6.236;2022-08-18T09:59:58;23.40;99.90
56727;DHT22;42609;52.700;6.236;2022-08-18T10:16:40;23.40;99.90
56727;DHT22;42609;52.700;6.236;2022-08-18T10:24:53;24.00;99.90
56727;DHT22;42609;52.700;6.236;2022-08-18T10:32:54;24.70;99.90
56727;DHT22;42609;52.700;6.236;2022-08-18T10:38:20;25.00;99.90
56727;DHT22;42609;52.700;6.236;2022-08-18T10:41:03;24.90;99.90
56727;DHT22;42609;52.700;6.236;2022-08-18T10:43:36;24.90;99.90
56727;DHT22;42609;52.700;6.236;2022-08-18T10:46:14;24.80;99.90
56727;DHT22;42609;52.700;6.236;2022-08-18T10:48:40;24.80;99.90
56727;DHT22;42609;52.700;6.236;2022-08-18T10:54:42;24.80;99.90
56727;DHT22;42609;52.700;6.236;2022-08-18T10:59:19;25.00;99.90
56727;DHT22;42609;52.700;6.236;2022-08-18T11:01:54;24.90;99.90
56727;DHT22;42609;52.700;6.236;2022-08-18T11:07:07;25.10;99.90
56727;DHT22;42609;52.700;6.236;2022-08-18T11:09:35;25.10;99.90
56727;DHT22;42609;52.700;6.236;2022-08-18T11:12:02;25.20;99.90
56727;DHT22;42609;52.700;6.236;2022-08-18T11:19:39;25.30;99.90
56727;DHT22;42609;52.700;6.236;2022-08-18T11:22:05;25.40;99.90
56727;DHT22;42609;52.700;6.236;2022-08-18T11:24:44;25.40;99.90
56727;DHT22;42609;52.700;6.236;2022-08-18T11:27:20;25.40;99.90
56727;DHT22;42609;52.700;6.236;2022-08-18T11:29:46;25.40;99.90
56727;DHT22;42609;52.700;6.236;2022-08-18T11:32:31;25.50;99.90
56727;DHT22;42609;52.700;6.236;2022-08-18T11:39:57;25.50;99.90
56727;DHT22;42609;52.700;6.236;2022-08-18T11:42:30;25.60;99.90
56727;DHT22;42609;52.700;6.236;2022-08-18T11:45:16;25.70;99.90
56727;DHT22;42609;52.700;6.236;2022-08-18T11:48:08;25.70;99.90
56727;DHT22;42609;52.700;6.236;2022-08-18T11:50:46;25.90;99.90
56727;DHT22;42609;52.700;6.236;2022-08-18T11:53:35;26.00;99.90
56727;DHT22;42609;52.700;6.236;2022-08-18T11:58:50;26.30;99.90
56727;DHT22;42609;52.700;6.236;2022-08-18T12:12:23;26.00;99.90
56727;DHT22;42609;52.700;6.236;2022-08-18T12:17:46;25.80;99.90
56727;DHT22;42609;52.700;6.236;2022-08-18T12:20:13;25.70;99.90
56727;DHT22;42609;52.700;6.236;2022-08-18T12:22:41;25.90;99.90
56727;DHT22;42609;52.700;6.236;2022-08-18T12:25:10;26.00;99.90
56727;DHT22;42609;52.700;6.236;2022-08-18T12:27:36;26.00;99.90
56727;DHT22;42609;52.700;6.236;2022-08-18T12:30:04;25.70;99.90
56727;DHT22;42609;52.700;6.236;2022-08-18T12:32:31;25.90;99.90
56727;DHT22;42609;52.700;6.236;2022-08-18T12:34:58;26.10;99.90
56727;DHT22;42609;52.700;6.236;2022-08-18T12:37:26;26.30;99.90
56727;DHT22;42609;52.700;6.236;2022-08-18T12:39:53;26.40;99.90
56727;DHT22;42609;52.700;6.236;2022-08-18T12:42:19;26.40;99.90
56727;DHT22;42609;52.700;6.236;2022-08-18T12:44:45;26.40;99.90
56727;DHT22;42609;52.700;6.236;2022-08-18T12:47:19;26.20;99.80
56727;DHT22;42609;52.700;6.236;2022-08-18T12:49:46;26.30;99.90
56727;DHT22;42609;52.700;6.236;2022-08-18T12:52:12;26.20;99.90
56727;DHT22;42609;52.700;6.236;2022-08-18T12:54:38;26.30;99.80
56727;DHT22;42609;52.700;6.236;2022-08-18T12:57:07;26.30;99.50
56727;DHT22;42609;52.700;6.236;2022-08-18T12:59:34;26.20;99.20
56727;DHT22;42609;52.700;6.236;2022-08-18T13:02:01;26.30;99.10
56727;DHT22;42609;52.700;6.236;2022-08-18T13:04:26;26.30;99.50
56727;DHT22;42609;52.700;6.236;2022-08-18T13:06:54;26.20;99.40
56727;DHT22;42609;52.700;6.236;2022-08-18T13:09:21;26.40;99.50
56727;DHT22;42609;52.700;6.236;2022-08-18T13:11:47;26.30;99.30
56727;DHT22;42609;52.700;6.236;2022-08-18T13:14:12;26.40;99.50
56727;DHT22;42609;52.700;6.236;2022-08-18T13:16:41;26.20;99.60
56727;DHT22;42609;52.700;6.236;2022-08-18T13:19:08;26.10;99.20
56727;DHT22;42609;52.700;6.236;2022-08-18T13:21:34;26.10;99.40
56727;DHT22;42609;52.700;6.236;2022-08-18T13:24:00;26.20;99.50
56727;DHT22;42609;52.700;6.236;2022-08-18T13:26:28;26.10;99.40
56727;DHT22;42609;52.700;6.236;2022-08-18T13:28:55;26.20;99.60
56727;DHT22;42609;52.700;6.236;2022-08-18T13:31:21;26.20;99.10
56727;DHT22;42609;52.700;6.236;2022-08-18T13:33:46;26.20;98.80
56727;DHT22;42609;52.700;6.236;2022-08-18T13:36:12;26.30;98.60
56727;DHT22;42609;52.700;6.236;2022-08-18T13:38:38;26.30;98.70
56727;DHT22;42609;52.700;6.236;2022-08-18T13:41:05;26.40;98.70
56727;DHT22;42609;52.700;6.236;2022-08-18T13:43:36;26.50;98.80
56727;DHT22;42609;52.700;6.236;2022-08-18T13:46:04;26.40;98.50
56727;DHT22;42609;52.700;6.236;2022-08-18T13:48:30;26.60;98.60
56727;DHT22;42609;52.700;6.236;2022-08-18T13:50:56;26.50;98.30
56727;DHT22;42609;52.700;6.236;2022-08-18T13:53:24;26.30;98.10
56727;DHT22;42609;52.700;6.236;2022-08-18T13:55:50;26.20;98.10
56727;DHT22;42609;52.700;6.236;2022-08-18T13:58:16;26.10;98.20
56727;DHT22;42609;52.700;6.236;2022-08-18T14:00:42;26.10;98.40
56727;DHT22;42609;52.700;6.236;2022-08-18T14:03:10;25.90;98.50
56727;DHT22;42609;52.700;6.236;2022-08-18T14:05:36;25.90;98.50
56727;DHT22;42609;52.700;6.236;2022-08-18T14:08:03;26.10;98.50
56727;DHT22;42609;52.700;6.236;2022-08-18T14:10:30;26.30;98.40
56727;DHT22;42609;52.700;6.236;2022-08-18T14:12:58;26.50;98.00
56727;DHT22;42609;52.700;6.236;2022-08-18T14:15:25;26.60;97.50
56727;DHT22;42609;52.700;6.236;2022-08-18T14:17:52;26.70;97.50
56727;DHT22;42609;52.700;6.236;2022-08-18T14:20:18;27.00;97.40
56727;DHT22;42609;52.700;6.236;2022-08-18T14:23:03;27.10;96.80
56727;DHT22;42609;52.700;6.236;2022-08-18T14:25:48;27.20;96.50
56727;DHT22;42609;52.700;6.236;2022-08-18T14:28:32;27.40;96.50
56727;DHT22;42609;52.700;6.236;2022-08-18T14:31:00;27.20;96.50
56727;DHT22;42609;52.700;6.236;2022-08-18T14:33:28;27.10;96.60
56727;DHT22;42609;52.700;6.236;2022-08-18T14:35:55;26.90;96.70
56727;DHT22;42609;52.700;6.236;2022-08-18T14:38:20;26.80;96.90
56727;DHT22;42609;52.700;6.236;2022-08-18T14:40:47;26.60;97.20
56727;DHT22;42609;52.700;6.236;2022-08-18T14:43:15;26.40;97.50
56727;DHT22;42609;52.700;6.236;2022-08-18T14:45:42;26.20;97.50
56727;DHT22;42609;52.700;6.236;2022-08-18T14:48:19;26.10;97.90
56727;DHT22;42609;52.700;6.236;2022-08-18T14:50:50;25.90;98.10
56727;DHT22;42609;52.700;6.236;2022-08-18T14:53:21;25.80;98.10
56727;DHT22;42609;52.700;6.236;2022-08-18T14:55:48;25.70;98.00
56727;DHT22;42609;52.700;6.236;2022-08-18T14:58:20;25.70;98.50
56727;DHT22;42609;52.700;6.236;2022-08-18T15:00:46;25.70;98.80
56727;DHT22;42609;52.700;6.236;2022-08-18T15:03:12;25.60;98.70
56727;DHT22;42609;52.700;6.236;2022-08-18T15:05:38;25.70;98.80
56727;DHT22;42609;52.700;6.236;2022-08-18T15:08:04;25.50;99.10
56727;DHT22;42609;52.700;6.236;2022-08-18T15:10:30;25.50;98.80
56727;DHT22;42609;52.700;6.236;2022-08-18T15:12:56;25.40;98.90
56727;DHT22;42609;52.700;6.236;2022-08-18T15:15:29;25.50;99.10
56727;DHT22;42609;52.700;6.236;2022-08-18T15:17:55;25.50;98.90
56727;DHT22;42609;52.700;6.236;2022-08-18T15:20:23;25.40;98.70
56727;DHT22;42609;52.700;6.236;2022-08-18T15:22:49;25.40;98.60
56727;DHT22;42609;52.700;6.236;2022-08-18T15:25:34;25.40;98.70
56727;DHT22;42609;52.700;6.236;2022-08-18T15:28:18;25.40;98.80
56727;DHT22;42609;52.700;6.236;2022-08-18T15:30:45;25.40;99.00
56727;DHT22;42609;52.700;6.236;2022-08-18T15:33:11;25.40;98.50
56727;DHT22;42609;52.700;6.236;2022-08-18T15:35:40;25.60;98.20
56727;DHT22;42609;52.700;6.236;2022-08-18T15:38:07;25.80;98.10
56727;DHT22;42609;52.700;6.236;2022-08-18T15:40:33;26.00;97.90
56727;DHT22;42609;52.700;6.236;2022-08-18T15:43:00;26.20;97.40
56727;DHT22;42609;52.700;6.236;2022-08-18T15:45:29;26.30;96.70
56727;DHT22;42609;52.700;6.236;2022-08-18T15:47:57;26.30;96.60
56727;DHT22;42609;52.700;6.236;2022-08-18T15:50:23;26.30;96.60
56727;DHT22;42609;52.700;6.236;2022-08-18T15:52:57;26.20;96.60
56727;DHT22;42609;52.700;6.236;2022-08-18T15:55:24;26.20;96.30
56727;DHT22;42609;52.700;6.236;2022-08-18T15:57:51;26.20;96.30
56727;DHT22;42609;52.700;6.236;2022-08-18T16:00:17;26.10;96.70
56727;DHT22;42609;52.700;6.236;2022-08-18T16:02:53;26.00;96.60
56727;DHT22;42609;52.700;6.236;2022-08-18T16:05:22;26.00;96.60
56727;DHT22;42609;52.700;6.236;2022-08-18T16:07:49;25.80;96.30
56727;DHT22;42609;52.700;6.236;2022-08-18T16:10:18;25.90;96.60
56727;DHT22;42609;52.700;6.236;2022-08-18T16:12:44;25.90;96.70
56727;DHT22;42609;52.700;6.236;2022-08-18T16:15:10;25.90;96.60
56727;DHT22;42609;52.700;6.236;2022-08-18T16:17:36;26.00;96.60
56727;DHT22;42609;52.700;6.236;2022-08-18T16:20:04;26.10;96.70
56727;DHT22;42609;52.700;6.236;2022-08-18T16:22:30;26.20;96.30
56727;DHT22;42609;52.700;6.236;2022-08-18T16:24:59;26.00;96.40
56727;DHT22;42609;52.700;6.236;2022-08-18T16:27:26;26.20;96.60
56727;DHT22;42609;52.700;6.236;2022-08-18T16:29:55;26.30;96.60
56727;DHT22;42609;52.700;6.236;2022-08-18T16:32:21;26.40;96.70
56727;DHT22;42609;52.700;6.236;2022-08-18T16:34:47;26.60;96.50
56727;DHT22;42609;52.700;6.236;2022-08-18T16:37:13;26.60;96.40
56727;DHT22;42609;52.700;6.236;2022-08-18T16:39:39;26.60;96.10
56727;DHT22;42609;52.700;6.236;2022-08-18T16:42:04;26.40;96.10
56727;DHT22;42609;52.700;6.236;2022-08-18T16:44:31;26.20;96.30
56727;DHT22;42609;52.700;6.236;2022-08-18T16:46:58;26.10;96.50
56727;DHT22;42609;52.700;6.236;2022-08-18T16:49:27;26.00;96.60
56727;DHT22;42609;52.700;6.236;2022-08-18T16:51:53;26.00;96.80
56727;DHT22;42609;52.700;6.236;2022-08-18T16:54:18;26.00;97.00
56727;DHT22;42609;52.700;6.236;2022-08-18T16:56:44;25.90;96.80
56727;DHT22;42609;52.700;6.236;2022-08-18T16:59:10;25.80;97.00
56727;DHT22;42609;52.700;6.236;2022-08-18T17:01:54;25.80;97.20
56727;DHT22;42609;52.700;6.236;2022-08-18T17:04:38;25.90;97.30
56727;DHT22;42609;52.700;6.236;2022-08-18T17:07:05;26.10;97.30
56727;DHT22;42609;52.700;6.236;2022-08-18T17:09:32;26.10;96.90
56727;DHT22;42609;52.700;6.236;2022-08-18T17:11:58;26.10;96.70
56727;DHT22;42609;52.700;6.236;2022-08-18T17:14:27;26.20;96.80
56727;DHT22;42609;52.700;6.236;2022-08-18T17:16:54;26.20;96.60
56727;DHT22;42609;52.700;6.236;2022-08-18T17:19:22;26.10;96.70
56727;DHT22;42609;52.700;6.236;2022-08-18T17:21:48;26.10;96.60
56727;DHT22;42609;52.700;6.236;2022-08-18T17:24:14;26.00;96.50
56727;DHT22;42609;52.700;6.236;2022-08-18T17:27:01;25.90;96.40
56727;DHT22;42609;52.700;6.236;2022-08-18T17:29:43;25.70;96.10
56727;DHT22;42609;52.700;6.236;2022-08-18T17:32:19;25.70;96.40
56727;DHT22;42609;52.700;6.236;2022-08-18T17:34:48;25.70;96.60
56727;DHT22;42609;52.700;6.236;2022-08-18T17:37:17;25.50;96.70
56727;DHT22;42609;52.700;6.236;2022-08-18T17:39:52;25.40;96.90
56727;DHT22;42609;52.700;6.236;2022-08-18T17:42:19;25.30;96.90
56727;DHT22;42609;52.700;6.236;2022-08-18T17:44:55;25.30;97.10
56727;DHT22;42609;52.700;6.236;2022-08-18T17:47:32;25.20;97.10
56727;DHT22;42609;52.700;6.236;2022-08-18T17:50:04;25.10;97.20
56727;DHT22;42609;52.700;6.236;2022-08-18T17:52:52;25.00;97.60
56727;DHT22;42609;52.700;6.236;2022-08-18T17:55:25;24.90;97.50
56727;DHT22;42609;52.700;6.236;2022-08-18T18:00:52;24.80;98.50
56727;DHT22;42609;52.700;6.236;2022-08-18T18:03:17;24.70;98.70
56727;DHT22;42609;52.700;6.236;2022-08-18T18:05:50;24.70;99.10
56727;DHT22;42609;52.700;6.236;2022-08-18T18:08:17;24.60;99.30
56727;DHT22;42609;52.700;6.236;2022-08-18T18:10:48;24.50;99.40
56727;DHT22;42609;52.700;6.236;2022-08-18T18:15:46;24.40;99.50
56727;DHT22;42609;52.700;6.236;2022-08-18T18:18:45;24.30;99.90
56727;DHT22;42609;52.700;6.236;2022-08-18T18:23:45;24.20;99.90
56727;DHT22;42609;52.700;6.236;2022-08-18T18:26:28;24.10;99.90
56727;DHT22;42609;52.700;6.236;2022-08-18T18:31:43;23.90;99.90
56727;DHT22;42609;52.700;6.236;2022-08-18T18:34:42;23.90;99.90
56727;DHT22;42609;52.700;6.236;2022-08-18T18:37:21;23.80;99.90
56727;DHT22;42609;52.700;6.236;2022-08-18T18:40:01;23.70;99.90
56727;DHT22;42609;52.700;6.236;2022-08-18T18:42:32;23.70;99.90
56727;DHT22;42609;52.700;6.236;2022-08-18T18:45:05;23.60;99.90